Airport View

Enter AWOS ICAO identifier for current METAR.

ex. KFNL

KPEA 080535Z AUTO 16003KT 10SM CLR 24/22 A2994 RMK AO2 T02440220

8 Jul 2020 05:41

Frequency: 118.875

Phone: 641-628-3459

Other Area AWOS: KOXV - KTNU - KGGI - KOOA

TAF KOTM 072335Z 0800/0824 20004KT P6SM SCT060 FM081600 19007KT P6SM SCT050